Time;durP1;ratioP1;P1;durP2;ratioP2;P2;SDS_P1;SDS_P2;PMS_P1;PMS_P2;Temp;Humidity;BMP_temperature;BMP_pressure;BME280_temperature;BME280_humidity;BME280_pressure;Samples;Min_cycle;Max_cycle;Signal;HPM_P1;HPM_P2
2021/07/29 00:01:21;;;;;;;;;4.00;4.00;;;;;;;;5027487;28;8934;-75
2021/07/29 00:03:48;;;;;;;;;3.50;3.50;;;;;;;;5025295;28;8874;-74
2021/07/29 00:06:16;;;;;;;;;3.25;3.25;;;;;;;;5027140;28;8877;-75
2021/07/29 00:08:43;;;;;;;;;3.00;3.00;;;;;;;;5027571;28;8865;-75
2021/07/29 00:11:11;;;;;;;;;4.00;2.50;;;;;;;;5026223;28;8977;-75
2021/07/29 00:13:38;;;;;;;;;3.00;3.00;;;;;;;;5027363;28;8949;-74
2021/07/29 00:16:07;;;;;;;;;3.00;3.00;;;;;;;;5035134;28;8858;-75
2021/07/29 00:21:19;;;;;;;;;4.00;3.75;;;;;;;;5013959;28;8847;-74
2021/07/29 00:23:50;;;;;;;;;3.50;2.25;;;;;;;;5026935;28;8886;-74
2021/07/29 00:26:18;;;;;;;;;0.00;0.00;;;;;;;;5027404;28;8841;-74
2021/07/29 00:28:45;;;;;;;;;3.50;3.50;;;;;;;;5025748;28;8873;-74
2021/07/29 00:31:13;;;;;;;;;2.75;2.75;;;;;;;;5026022;28;8844;-74
2021/07/29 00:33:41;;;;;;;;;2.25;2.25;;;;;;;;5025175;28;9648;-75
2021/07/29 00:36:08;;;;;;;;;3.00;3.00;;;;;;;;5050899;28;8857;-74
2021/07/29 00:38:35;;;;;;;;;3.00;3.00;;;;;;;;5064637;28;8868;-74
2021/07/29 00:41:02;;;;;;;;;4.25;4.00;;;;;;;;5046271;28;8885;-74
2021/07/29 00:43:29;;;;;;;;;3.00;2.25;;;;;;;;5051710;28;8866;-75
2021/07/29 00:45:58;;;;;;;;;3.00;3.00;;;;;;;;5059447;28;8914;-75
2021/07/29 00:48:27;;;;;;;;;2.00;2.00;;;;;;;;5059714;28;8844;-74
2021/07/29 00:50:54;;;;;;;;;2.75;2.75;;;;;;;;5053479;28;8910;-74
2021/07/29 00:53:21;;;;;;;;;2.50;1.00;;;;;;;;5063594;28;8917;-75
2021/07/29 00:55:49;;;;;;;;;2.00;2.00;;;;;;;;5058443;28;8843;-74
2021/07/29 00:58:16;;;;;;;;;3.00;3.00;;;;;;;;5053094;28;8864;-75
2021/07/29 01:00:43;;;;;;;;;1.75;1.75;;;;;;;;5051094;28;8802;-74
2021/07/29 01:03:11;;;;;;;;;2.75;2.75;;;;;;;;5047940;28;8854;-74
2021/07/29 01:05:39;;;;;;;;;4.00;2.50;;;;;;;;5057454;28;8874;-74
2021/07/29 01:08:07;;;;;;;;;2.50;2.50;;;;;;;;5050786;28;8872;-76
2021/07/29 01:10:35;;;;;;;;;2.00;2.00;;;;;;;;5060549;28;8964;-75
2021/07/29 01:13:03;;;;;;;;;3.00;3.00;;;;;;;;5063786;28;8883;-74
2021/07/29 01:15:30;;;;;;;;;4.00;4.00;;;;;;;;5057062;28;8879;-74
2021/07/29 01:18:01;;;;;;;;;2.50;2.50;;;;;;;;5052677;28;8858;-74
2021/07/29 01:20:30;;;;;;;;;2.00;2.00;;;;;;;;5058290;28;8872;-75
2021/07/29 01:22:57;;;;;;;;;3.00;2.00;;;;;;;;5063493;28;8849;-75
2021/07/29 01:25:24;;;;;;;;;3.00;3.00;;;;;;;;5061467;28;8859;-74
2021/07/29 01:27:52;;;;;;;;;2.00;2.00;;;;;;;;5052961;28;8860;-74
2021/07/29 01:30:19;;;;;;;;;2.00;2.00;;;;;;;;5032833;28;8858;-75
2021/07/29 01:32:46;;;;;;;;;3.50;3.00;;;;;;;;5053355;28;8883;-74
2021/07/29 01:35:13;;;;;;;;;2.75;2.75;;;;;;;;5059021;28;8887;-74
2021/07/29 01:37:42;;;;;;;;;3.00;3.00;;;;;;;;5065250;28;8853;-74
2021/07/29 01:40:10;;;;;;;;;2.00;2.00;;;;;;;;5065951;28;8883;-74
2021/07/29 01:42:38;;;;;;;;;3.50;3.50;;;;;;;;5060026;28;8856;-75
2021/07/29 01:45:06;;;;;;;;;1.25;1.25;;;;;;;;5056915;28;8896;-74
2021/07/29 01:47:33;;;;;;;;;2.50;2.50;;;;;;;;5055172;28;8862;-74
2021/07/29 01:50:00;;;;;;;;;2.25;2.25;;;;;;;;5048338;28;9674;-74
2021/07/29 01:52:27;;;;;;;;;4.00;2.25;;;;;;;;5054385;28;8959;-74
2021/07/29 01:54:56;;;;;;;;;2.50;2.50;;;;;;;;5053507;28;8922;-74
2021/07/29 01:57:23;;;;;;;;;2.25;2.00;;;;;;;;5052045;28;8859;-75
2021/07/29 01:59:51;;;;;;;;;3.75;3.75;;;;;;;;5043767;28;8986;-75
2021/07/29 02:02:18;;;;;;;;;1.50;1.50;;;;;;;;5043728;28;8830;-74
2021/07/29 02:04:45;;;;;;;;;1.25;1.25;;;;;;;;5058673;28;8872;-74
2021/07/29 02:07:12;;;;;;;;;2.00;2.00;;;;;;;;5054522;28;8878;-74
2021/07/29 02:09:40;;;;;;;;;2.00;2.00;;;;;;;;5047037;28;8868;-74
2021/07/29 02:12:09;;;;;;;;;4.75;3.00;;;;;;;;5055701;28;8888;-73
2021/07/29 02:14:36;;;;;;;;;2.50;2.50;;;;;;;;5050784;28;8898;-74
2021/07/29 02:17:03;;;;;;;;;2.25;2.25;;;;;;;;5047993;28;9752;-73
2021/07/29 02:19:32;;;;;;;;;3.75;3.75;;;;;;;;5057709;28;8858;-75
2021/07/29 02:21:59;;;;;;;;;2.00;2.00;;;;;;;;5048152;28;8931;-74
2021/07/29 02:24:26;;;;;;;;;2.00;2.00;;;;;;;;5061524;28;9685;-73
2021/07/29 02:26:53;;;;;;;;;2.50;2.50;;;;;;;;5043151;28;8855;-74
2021/07/29 02:29:22;;;;;;;;;2.50;2.00;;;;;;;;5060135;28;9026;-74
2021/07/29 02:31:49;;;;;;;;;2.25;2.25;;;;;;;;5056368;28;8843;-74
2021/07/29 02:34:16;;;;;;;;;1.00;1.00;;;;;;;;5064240;28;8894;-73
2021/07/29 02:36:44;;;;;;;;;2.00;2.00;;;;;;;;5059078;28;8942;-74
2021/07/29 02:39:11;;;;;;;;;2.00;2.00;;;;;;;;5030200;28;8865;-75
2021/07/29 02:41:39;;;;;;;;;2.50;2.50;;;;;;;;5052891;28;8976;-75
2021/07/29 02:44:07;;;;;;;;;2.25;2.25;;;;;;;;5044174;28;8890;-74
2021/07/29 02:46:35;;;;;;;;;3.50;3.50;;;;;;;;5050981;28;8850;-73
2021/07/29 02:49:02;;;;;;;;;3.00;3.00;;;;;;;;5051717;28;8894;-74
2021/07/29 02:51:29;;;;;;;;;1.75;1.75;;;;;;;;5047583;28;8969;-73
2021/07/29 02:53:57;;;;;;;;;2.00;2.00;;;;;;;;5052451;28;8890;-77
2021/07/29 02:56:24;;;;;;;;;2.00;2.00;;;;;;;;5044797;28;8997;-75
2021/07/29 02:58:51;;;;;;;;;4.75;3.00;;;;;;;;5058118;28;8858;-75
2021/07/29 03:01:18;;;;;;;;;2.50;2.50;;;;;;;;5048007;28;8823;-76
2021/07/29 03:03:47;;;;;;;;;2.00;2.00;;;;;;;;5059095;28;8901;-73
2021/07/29 03:06:14;;;;;;;;;1.00;1.00;;;;;;;;5049621;28;9746;-78
2021/07/29 03:08:41;;;;;;;;;3.00;3.00;;;;;;;;5051012;28;8864;-74
2021/07/29 03:11:10;;;;;;;;;2.25;2.25;;;;;;;;5059772;28;8840;-73
2021/07/29 03:13:38;;;;;;;;;4.00;2.25;;;;;;;;5061438;28;8879;-73
2021/07/29 03:16:05;;;;;;;;;2.00;2.00;;;;;;;;5054444;28;8886;-74
2021/07/29 03:18:32;;;;;;;;;2.00;2.00;;;;;;;;5063007;28;8887;-74
2021/07/29 03:21:01;;;;;;;;;2.50;2.25;;;;;;;;5053951;28;8954;-74
2021/07/29 03:23:28;;;;;;;;;1.00;1.00;;;;;;;;5042415;28;8864;-74
2021/07/29 03:25:56;;;;;;;;;2.75;2.75;;;;;;;;5051003;28;8891;-74
2021/07/29 03:28:23;;;;;;;;;3.00;3.00;;;;;;;;5051878;28;8858;-74
2021/07/29 03:30:52;;;;;;;;;4.00;4.00;;;;;;;;5049034;28;9621;-74
2021/07/29 03:33:20;;;;;;;;;2.00;2.00;;;;;;;;5045467;28;9633;-73
2021/07/29 03:35:47;;;;;;;;;4.00;4.00;;;;;;;;5061677;28;8861;-74
2021/07/29 03:38:16;;;;;;;;;3.00;3.00;;;;;;;;5058495;28;8868;-75
2021/07/29 03:40:44;;;;;;;;;3.50;3.00;;;;;;;;5048665;28;9695;-73
2021/07/29 03:43:11;;;;;;;;;3.75;3.75;;;;;;;;5059242;28;8934;-74
2021/07/29 03:45:43;;;;;;;;;4.25;2.75;;;;;;;;5053805;28;8971;-73
2021/07/29 03:48:10;;;;;;;;;2.00;2.00;;;;;;;;5061602;28;9716;-73
2021/07/29 03:50:39;;;;;;;;;3.50;3.50;;;;;;;;5054565;28;8876;-73
2021/07/29 03:53:06;;;;;;;;;6.50;3.00;;;;;;;;5062754;28;8886;-74
2021/07/29 03:55:34;;;;;;;;;2.00;2.00;;;;;;;;5054359;28;8902;-73
2021/07/29 03:58:02;;;;;;;;;2.75;2.75;;;;;;;;5058626;28;8860;-74
2021/07/29 04:00:29;;;;;;;;;6.75;2.00;;;;;;;;5052472;28;8791;-74
2021/07/29 04:02:57;;;;;;;;;1.00;1.00;;;;;;;;5050389;28;9682;-74
2021/07/29 04:05:24;;;;;;;;;2.00;2.00;;;;;;;;5054680;28;8867;-74
2021/07/29 04:07:51;;;;;;;;;2.00;2.00;;;;;;;;5047751;28;8891;-74
2021/07/29 04:10:18;;;;;;;;;3.00;3.00;;;;;;;;5049872;28;8863;-74
2021/07/29 04:12:47;;;;;;;;;3.00;3.00;;;;;;;;5047320;28;9507;-79
2021/07/29 04:15:14;;;;;;;;;3.75;3.75;;;;;;;;5059439;28;8848;-80
2021/07/29 04:17:41;;;;;;;;;2.25;2.25;;;;;;;;5064211;28;8844;-74
2021/07/29 04:20:10;;;;;;;;;2.50;1.75;;;;;;;;5067709;28;8864;-71
2021/07/29 04:22:37;;;;;;;;;2.25;2.25;;;;;;;;5056836;28;8864;-76
2021/07/29 04:25:05;;;;;;;;;2.00;2.00;;;;;;;;5047220;28;8854;-77
2021/07/29 04:27:32;;;;;;;;;2.00;2.00;;;;;;;;5051959;28;8934;-73
2021/07/29 04:30:00;;;;;;;;;3.00;3.00;;;;;;;;5067019;28;8860;-75
2021/07/29 04:32:34;;;;;;;;;2.75;2.75;;;;;;;;5065270;28;8852;-74
2021/07/29 04:35:02;;;;;;;;;1.00;1.00;;;;;;;;5066719;28;8876;-77
2021/07/29 04:37:29;;;;;;;;;3.00;3.00;;;;;;;;5066975;28;8979;-78
2021/07/29 04:39:56;;;;;;;;;3.00;3.00;;;;;;;;5063127;28;8913;-81
2021/07/29 04:42:24;;;;;;;;;2.75;2.50;;;;;;;;5054882;28;8872;-77
2021/07/29 04:44:51;;;;;;;;;3.50;2.00;;;;;;;;5046070;28;8877;-77
2021/07/29 04:47:20;;;;;;;;;2.00;2.00;;;;;;;;5066802;28;8865;-77
2021/07/29 04:49:47;;;;;;;;;2.00;2.00;;;;;;;;5065473;28;8884;-76
2021/07/29 04:52:14;;;;;;;;;5.00;4.75;;;;;;;;5066645;28;8987;-75
2021/07/29 04:54:41;;;;;;;;;3.00;3.00;;;;;;;;5063334;28;8840;-80
2021/07/29 04:57:09;;;;;;;;;1.75;1.75;;;;;;;;5060146;28;11015;-76
2021/07/29 04:59:39;;;;;;;;;5.00;3.00;;;;;;;;5048849;28;8873;-76
2021/07/29 05:02:06;;;;;;;;;2.00;2.00;;;;;;;;5053591;28;8901;-76
2021/07/29 05:04:36;;;;;;;;;4.00;2.00;;;;;;;;5049035;28;8911;-75
2021/07/29 05:07:03;;;;;;;;;2.25;2.25;;;;;;;;5062848;28;8890;-76
2021/07/29 05:09:31;;;;;;;;;2.50;2.50;;;;;;;;5066500;28;8856;-76
2021/07/29 05:11:58;;;;;;;;;2.50;2.50;;;;;;;;5049363;28;8861;-79
2021/07/29 05:14:25;;;;;;;;;2.75;2.75;;;;;;;;5062253;28;8895;-80
2021/07/29 05:16:53;;;;;;;;;2.00;2.00;;;;;;;;5049725;28;8851;-79
2021/07/29 05:19:20;;;;;;;;;4.50;3.50;;;;;;;;5028480;28;8862;-82
2021/07/29 05:21:49;;;;;;;;;3.75;2.00;;;;;;;;5045293;28;8875;-78
2021/07/29 05:24:16;;;;;;;;;7.25;3.00;;;;;;;;5026398;28;8898;-85
2021/07/29 05:26:43;;;;;;;;;5.25;4.00;;;;;;;;5045825;28;8855;-79
2021/07/29 05:29:12;;;;;;;;;2.75;2.00;;;;;;;;5045690;28;9987;-76
2021/07/29 05:31:41;;;;;;;;;6.25;5.25;;;;;;;;5044900;28;8839;-77
2021/07/29 05:34:09;;;;;;;;;2.50;2.50;;;;;;;;5045035;28;8852;-77
2021/07/29 05:36:37;;;;;;;;;3.00;3.00;;;;;;;;5010738;28;8870;-77
2021/07/29 05:39:06;;;;;;;;;5.50;3.25;;;;;;;;5046839;28;9618;-77
2021/07/29 05:41:33;;;;;;;;;3.00;3.00;;;;;;;;5040826;28;8890;-77
2021/07/29 05:44:00;;;;;;;;;5.00;3.00;;;;;;;;5043649;28;8882;-77
2021/07/29 05:46:28;;;;;;;;;3.00;3.00;;;;;;;;5027536;28;8866;-77
2021/07/29 05:48:55;;;;;;;;;3.00;3.00;;;;;;;;5050330;28;8889;-77
2021/07/29 05:51:22;;;;;;;;;5.00;4.00;;;;;;;;5049909;28;8874;-76
2021/07/29 05:53:49;;;;;;;;;3.00;3.00;;;;;;;;5052770;28;8882;-78
2021/07/29 05:56:18;;;;;;;;;2.75;2.75;;;;;;;;5058566;28;8868;-78
2021/07/29 05:58:45;;;;;;;;;4.75;4.00;;;;;;;;5061906;28;8868;-76
2021/07/29 06:01:12;;;;;;;;;3.00;3.00;;;;;;;;5044153;28;8822;-79
2021/07/29 06:03:40;;;;;;;;;3.75;2.00;;;;;;;;5044391;28;9652;-80
2021/07/29 06:06:07;;;;;;;;;3.75;3.75;;;;;;;;5045601;28;9008;-80
2021/07/29 06:08:34;;;;;;;;;5.00;5.00;;;;;;;;5047371;28;8880;-79
2021/07/29 06:11:06;;;;;;;;;3.50;3.50;;;;;;;;5045493;28;8871;-79
2021/07/29 06:13:34;;;;;;;;;3.00;3.00;;;;;;;;5046183;28;9620;-79
2021/07/29 06:16:02;;;;;;;;;3.00;3.00;;;;;;;;5047410;28;8862;-79
2021/07/29 06:18:30;;;;;;;;;5.50;4.00;;;;;;;;5045139;28;8859;-80
2021/07/29 06:20:57;;;;;;;;;3.00;3.00;;;;;;;;5043826;28;8963;-79
2021/07/29 06:23:24;;;;;;;;;4.25;3.00;;;;;;;;5044858;28;8878;-79
2021/07/29 06:25:51;;;;;;;;;3.75;3.75;;;;;;;;5044080;28;8858;-79
2021/07/29 06:28:19;;;;;;;;;3.00;3.00;;;;;;;;5044658;28;8928;-78
2021/07/29 06:30:48;;;;;;;;;1.50;1.50;;;;;;;;5046007;28;8825;-79
2021/07/29 06:33:15;;;;;;;;;2.50;2.50;;;;;;;;5043749;28;8920;-78
2021/07/29 06:35:42;;;;;;;;;2.00;2.00;;;;;;;;5045370;28;8869;-77
2021/07/29 06:38:10;;;;;;;;;4.50;3.75;;;;;;;;5045327;28;8935;-80
2021/07/29 06:40:37;;;;;;;;;4.75;3.00;;;;;;;;5045053;28;8846;-78
2021/07/29 06:43:04;;;;;;;;;4.00;2.75;;;;;;;;5047537;28;8838;-77
2021/07/29 06:45:32;;;;;;;;;3.25;3.00;;;;;;;;5028032;28;8940;-77
2021/07/29 06:48:01;;;;;;;;;2.50;2.50;;;;;;;;5027575;28;8877;-80
2021/07/29 06:50:28;;;;;;;;;4.50;3.25;;;;;;;;5025874;28;8855;-79
2021/07/29 06:52:55;;;;;;;;;3.00;3.00;;;;;;;;5047836;28;8906;-80
2021/07/29 06:55:23;;;;;;;;;4.25;3.00;;;;;;;;5045487;28;8875;-78
2021/07/29 06:57:50;;;;;;;;;3.00;3.00;;;;;;;;5046998;28;8856;-78
2021/07/29 07:00:20;;;;;;;;;3.00;2.00;;;;;;;;5059221;28;8839;-78
2021/07/29 07:02:47;;;;;;;;;3.50;3.00;;;;;;;;5048202;28;8896;-81
2021/07/29 07:05:16;;;;;;;;;3.00;3.00;;;;;;;;5062380;28;9676;-78
2021/07/29 07:07:43;;;;;;;;;4.00;4.00;;;;;;;;5049619;28;8906;-79
2021/07/29 07:10:11;;;;;;;;;4.00;2.75;;;;;;;;5064132;28;9846;-77
2021/07/29 07:12:38;;;;;;;;;3.25;3.25;;;;;;;;5049022;28;8879;-80
2021/07/29 07:15:06;;;;;;;;;2.75;2.75;;;;;;;;5052257;28;8841;-79
2021/07/29 07:17:33;;;;;;;;;4.00;3.00;;;;;;;;5062798;28;8858;-78
2021/07/29 07:20:01;;;;;;;;;2.50;2.50;;;;;;;;5063738;28;8880;-77
2021/07/29 07:22:30;;;;;;;;;3.00;3.00;;;;;;;;5063689;28;8922;-77
2021/07/29 07:24:57;;;;;;;;;4.25;3.00;;;;;;;;5063056;28;8884;-77
2021/07/29 07:27:25;;;;;;;;;1.75;1.75;;;;;;;;5057889;28;8895;-78
2021/07/29 07:29:52;;;;;;;;;3.50;3.50;;;;;;;;5063159;28;8856;-78
2021/07/29 07:32:19;;;;;;;;;2.00;2.00;;;;;;;;5043935;28;8841;-78
2021/07/29 07:34:46;;;;;;;;;4.50;3.00;;;;;;;;5053301;28;8886;-82
2021/07/29 07:37:13;;;;;;;;;1.75;1.75;;;;;;;;5044059;28;9494;-78
2021/07/29 07:39:42;;;;;;;;;2.00;2.00;;;;;;;;5047081;28;8861;-79
2021/07/29 07:42:09;;;;;;;;;5.25;2.50;;;;;;;;5046055;28;8878;-78
2021/07/29 07:44:36;;;;;;;;;5.25;2.50;;;;;;;;5058000;28;9653;-78
2021/07/29 07:47:04;;;;;;;;;2.00;2.00;;;;;;;;5062241;28;8888;-77
2021/07/29 07:49:33;;;;;;;;;2.00;2.00;;;;;;;;5047263;28;8870;-78
2021/07/29 07:52:00;;;;;;;;;4.00;4.00;;;;;;;;5048571;28;8970;-80
2021/07/29 07:54:27;;;;;;;;;2.50;2.50;;;;;;;;5067960;28;8888;-78
2021/07/29 07:56:56;;;;;;;;;3.75;2.50;;;;;;;;5066940;28;8848;-81
2021/07/29 07:59:23;;;;;;;;;2.25;2.25;;;;;;;;5066671;28;8995;-77
2021/07/29 08:01:51;;;;;;;;;2.50;2.50;;;;;;;;5059522;28;8795;-78
2021/07/29 08:04:19;;;;;;;;;3.25;3.25;;;;;;;;5046898;28;9582;-79
2021/07/29 08:06:46;;;;;;;;;4.00;2.50;;;;;;;;5046943;28;9622;-77
2021/07/29 08:09:13;;;;;;;;;1.50;1.50;;;;;;;;5046287;28;8856;-78
2021/07/29 08:11:41;;;;;;;;;2.50;2.50;;;;;;;;5046557;28;8894;-78
2021/07/29 08:14:09;;;;;;;;;3.75;3.75;;;;;;;;5047893;28;8868;-78
2021/07/29 08:16:37;;;;;;;;;3.60;3.20;;;;;;;;5047317;28;8928;-78
2021/07/29 08:19:05;;;;;;;;;2.00;2.00;;;;;;;;5049615;28;8961;-80
2021/07/29 08:21:32;;;;;;;;;2.20;2.20;;;;;;;;5046903;28;8836;-78
2021/07/29 08:23:59;;;;;;;;;2.20;2.20;;;;;;;;5049765;28;8870;-79
2021/07/29 08:26:26;;;;;;;;;4.20;2.20;;;;;;;;5045254;28;8847;-79
2021/07/29 08:28:54;;;;;;;;;2.40;2.40;;;;;;;;5047258;28;8989;-77
2021/07/29 08:31:22;;;;;;;;;2.20;2.20;;;;;;;;5046571;28;8819;-78
2021/07/29 08:33:49;;;;;;;;;6.50;5.25;;;;;;;;5051279;28;8872;-77
2021/07/29 08:36:18;;;;;;;;;6.75;6.75;;;;;;;;5043668;28;8861;-78
2021/07/29 08:38:47;;;;;;;;;4.00;4.00;;;;;;;;5046037;28;8851;-78
2021/07/29 08:41:16;;;;;;;;;6.25;6.25;;;;;;;;5047690;28;8876;-77
2021/07/29 08:43:43;;;;;;;;;5.25;5.25;;;;;;;;5054360;28;8876;-78
2021/07/29 08:46:13;;;;;;;;;5.75;4.50;;;;;;;;5069519;28;8872;-78
2021/07/29 08:48:45;;;;;;;;;4.50;4.50;;;;;;;;5068341;28;8902;-78
2021/07/29 08:51:14;;;;;;;;;5.00;4.50;;;;;;;;5065852;28;8876;-78
2021/07/29 08:53:41;;;;;;;;;3.00;3.00;;;;;;;;5049406;28;8888;-77
2021/07/29 08:56:12;;;;;;;;;2.00;2.00;;;;;;;;5055528;28;9625;-78
2021/07/29 08:58:39;;;;;;;;;3.40;3.00;;;;;;;;5056428;28;8876;-78
2021/07/29 09:01:08;;;;;;;;;1.00;1.00;;;;;;;;5064072;28;9456;-78
2021/07/29 09:03:37;;;;;;;;;2.00;2.00;;;;;;;;5063025;28;8868;-79
2021/07/29 09:06:10;;;;;;;;;3.00;2.00;;;;;;;;5063690;28;8860;-78
2021/07/29 09:08:45;;;;;;;;;2.00;2.00;;;;;;;;5066449;28;8872;-78
2021/07/29 09:11:34;;;;;;;;;3.20;2.40;;;;;;;;5059819;28;8858;-78
2021/07/29 09:14:11;;;;;;;;;2.00;2.00;;;;;;;;5045150;28;8895;-78
2021/07/29 09:16:54;;;;;;;;;2.00;2.00;;;;;;;;5046234;28;8884;-78
2021/07/29 09:19:32;;;;;;;;;3.00;2.00;;;;;;;;5065867;28;8852;-79
2021/07/29 09:22:12;;;;;;;;;2.00;2.00;;;;;;;;5064411;28;8893;-79
2021/07/29 09:24:59;;;;;;;;;2.40;2.40;;;;;;;;5066369;28;8876;-78
2021/07/29 09:27:27;;;;;;;;;2.40;2.40;;;;;;;;5043646;28;9660;-77
2021/07/29 09:29:54;;;;;;;;;2.00;2.00;;;;;;;;5058378;28;8852;-78
2021/07/29 09:32:23;;;;;;;;;2.00;2.00;;;;;;;;5034188;28;8919;-79
2021/07/29 09:34:52;;;;;;;;;2.00;2.00;;;;;;;;5065478;28;8884;-79
2021/07/29 09:37:21;;;;;;;;;3.00;2.00;;;;;;;;5055317;28;8966;-77
2021/07/29 09:40:00;;;;;;;;;2.60;2.00;;;;;;;;5064666;28;8856;-78
2021/07/29 09:42:28;;;;;;;;;2.20;2.20;;;;;;;;5065910;28;8894;-78
2021/07/29 09:44:56;;;;;;;;;2.40;2.00;;;;;;;;5047376;28;8892;-77
2021/07/29 09:47:24;;;;;;;;;2.00;2.00;;;;;;;;5053907;28;9024;-81
2021/07/29 09:49:51;;;;;;;;;2.00;2.00;;;;;;;;5063639;28;8895;-79
2021/07/29 09:52:21;;;;;;;;;2.60;2.60;;;;;;;;5046887;28;8874;-78
2021/07/29 09:54:49;;;;;;;;;4.40;2.00;;;;;;;;5046537;28;9005;-78
2021/07/29 09:57:17;;;;;;;;;2.80;2.80;;;;;;;;5045074;28;8847;-75
2021/07/29 09:59:44;;;;;;;;;4.00;2.80;;;;;;;;5048376;28;8874;-78
2021/07/29 10:02:12;;;;;;;;;3.60;2.00;;;;;;;;5045142;28;8810;-78
2021/07/29 10:04:43;;;;;;;;;3.00;3.00;;;;;;;;5045182;28;9744;-82
2021/07/29 10:07:16;;;;;;;;;2.40;2.40;;;;;;;;5045224;28;8847;-78
2021/07/29 10:09:47;;;;;;;;;2.60;2.60;;;;;;;;5045939;28;8870;-78
2021/07/29 10:12:23;;;;;;;;;2.00;2.00;;;;;;;;5045023;28;8862;-78
2021/07/29 10:14:52;;;;;;;;;1.40;1.40;;;;;;;;5045288;28;9700;-78
2021/07/29 10:18:02;;;;;;;;;2.20;2.20;;;;;;;;5046465;28;8869;-78
2021/07/29 10:20:32;;;;;;;;;1.40;1.40;;;;;;;;5043331;28;8856;-78
2021/07/29 10:23:27;;;;;;;;;1.80;1.80;;;;;;;;5052828;28;8967;-79
2021/07/29 10:26:06;;;;;;;;;2.00;2.00;;;;;;;;5001447;28;8983;-79
2021/07/29 10:28:39;;;;;;;;;2.00;2.00;;;;;;;;5045632;28;8862;-79
2021/07/29 10:31:09;;;;;;;;;2.00;2.00;;;;;;;;5063233;28;8822;-79
2021/07/29 10:33:36;;;;;;;;;2.00;2.00;;;;;;;;5064929;28;8856;-78
2021/07/29 10:36:04;;;;;;;;;3.20;3.20;;;;;;;;5054727;28;8871;-79
2021/07/29 10:38:52;;;;;;;;;2.40;2.20;;;;;;;;5052500;28;8864;-79
2021/07/29 10:41:46;;;;;;;;;2.60;2.60;;;;;;;;5056648;28;8888;-79
2021/07/29 10:44:55;;;;;;;;;3.00;3.00;;;;;;;;5047074;28;8913;-79
2021/07/29 10:47:43;;;;;;;;;1.20;1.20;;;;;;;;5047607;28;8900;-81
2021/07/29 10:50:14;;;;;;;;;1.60;1.60;;;;;;;;5042723;28;8898;-80
2021/07/29 10:52:49;;;;;;;;;3.00;3.00;;;;;;;;5046906;28;8858;-80
2021/07/29 10:55:17;;;;;;;;;1.00;1.00;;;;;;;;5052922;28;8851;-82
2021/07/29 10:58:01;;;;;;;;;1.60;1.60;;;;;;;;5054944;28;8977;-81
2021/07/29 11:00:28;;;;;;;;;1.20;1.20;;;;;;;;5064573;28;8784;-80
2021/07/29 11:02:57;;;;;;;;;2.40;2.40;;;;;;;;5062684;28;8916;-79
2021/07/29 11:05:34;;;;;;;;;2.00;2.00;;;;;;;;5064252;28;8998;-82
2021/07/29 11:08:02;;;;;;;;;4.00;2.60;;;;;;;;5058362;28;8857;-81
2021/07/29 11:10:30;;;;;;;;;2.00;2.00;;;;;;;;5062063;28;9465;-81
2021/07/29 11:12:59;;;;;;;;;1.80;1.80;;;;;;;;5047487;28;8864;-79
2021/07/29 11:15:27;;;;;;;;;3.00;1.80;;;;;;;;5062879;28;8849;-77
2021/07/29 11:17:54;;;;;;;;;0.40;0.40;;;;;;;;5052323;28;8882;-79
2021/07/29 11:20:28;;;;;;;;;3.40;1.80;;;;;;;;5042144;28;9755;-81
2021/07/29 11:22:55;;;;;;;;;3.00;3.00;;;;;;;;5047023;28;8913;-81
2021/07/29 11:25:22;;;;;;;;;1.80;1.80;;;;;;;;5042213;28;8831;-82
2021/07/29 11:27:50;;;;;;;;;2.20;2.00;;;;;;;;5041646;28;8866;-82
2021/07/29 11:30:18;;;;;;;;;1.00;1.00;;;;;;;;5045620;28;8835;-82
2021/07/29 11:32:46;;;;;;;;;3.20;2.20;;;;;;;;5039839;28;8862;-82
2021/07/29 11:35:17;;;;;;;;;2.80;1.80;;;;;;;;5044580;28;9678;-78
2021/07/29 11:37:45;;;;;;;;;2.00;2.00;;;;;;;;5042392;28;8939;-79
2021/07/29 11:40:22;;;;;;;;;3.20;3.20;;;;;;;;5049868;28;8892;-78
2021/07/29 11:42:50;;;;;;;;;2.40;0.80;;;;;;;;5046081;28;8857;-77
2021/07/29 11:45:25;;;;;;;;;1.80;1.80;;;;;;;;5041855;28;9041;-77
2021/07/29 11:47:52;;;;;;;;;1.40;1.40;;;;;;;;5043854;28;8983;-78
2021/07/29 11:50:34;;;;;;;;;2.00;2.00;;;;;;;;5043989;28;9624;-78
2021/07/29 11:53:01;;;;;;;;;3.20;1.80;;;;;;;;5045171;28;8869;-78
2021/07/29 11:55:29;;;;;;;;;1.60;1.60;;;;;;;;5042381;28;8847;-83
2021/07/29 11:57:56;;;;;;;;;1.60;1.60;;;;;;;;5046317;28;8886;-80
2021/07/29 12:00:31;;;;;;;;;3.40;2.40;;;;;;;;5041941;28;8771;-81
2021/07/29 12:03:00;;;;;;;;;2.00;2.00;;;;;;;;5038623;28;8867;-81
2021/07/29 12:05:27;;;;;;;;;1.80;1.80;;;;;;;;5043982;28;8878;-80
2021/07/29 12:07:55;;;;;;;;;2.60;2.00;;;;;;;;5045423;28;8874;-80
2021/07/29 12:10:31;;;;;;;;;2.00;2.00;;;;;;;;5057769;28;8895;-80
2021/07/29 12:12:59;;;;;;;;;1.40;1.40;;;;;;;;5023068;28;8943;-81
2021/07/29 12:15:26;;;;;;;;;3.00;3.00;;;;;;;;5062273;28;8850;-81
2021/07/29 12:18:14;;;;;;;;;1.20;1.20;;;;;;;;5062953;28;8884;-81
2021/07/29 12:23:26;;;;;;;;;1.20;1.20;;;;;;;;5058078;28;8918;-79
2021/07/29 12:25:56;;;;;;;;;2.40;1.40;;;;;;;;5062671;28;8856;-79
2021/07/29 12:28:47;;;;;;;;;1.60;1.60;;;;;;;;5052317;28;8966;-79
2021/07/29 12:31:21;;;;;;;;;1.20;1.20;;;;;;;;5033969;28;8826;-79
2021/07/29 12:33:51;;;;;;;;;1.60;1.60;;;;;;;;5047383;28;8894;-80
2021/07/29 12:36:20;;;;;;;;;1.80;1.80;;;;;;;;5049824;28;9048;-79
2021/07/29 12:38:56;;;;;;;;;1.20;1.20;;;;;;;;5050261;28;8844;-80
2021/07/29 12:41:30;;;;;;;;;0.80;0.80;;;;;;;;5039160;28;8874;-81
2021/07/29 12:44:08;;;;;;;;;4.60;2.40;;;;;;;;5048123;28;8854;-79
2021/07/29 12:46:35;;;;;;;;;1.00;1.00;;;;;;;;5065348;28;8864;-79
2021/07/29 12:49:04;;;;;;;;;1.80;1.80;;;;;;;;5066678;28;8868;-79
2021/07/29 12:51:35;;;;;;;;;1.00;1.00;;;;;;;;5047095;28;9631;-79
2021/07/29 12:54:03;;;;;;;;;1.60;1.60;;;;;;;;5058156;28;8984;-79
2021/07/29 12:56:30;;;;;;;;;2.00;2.00;;;;;;;;5056939;28;8884;-79
2021/07/29 12:58:58;;;;;;;;;1.80;1.80;;;;;;;;5065569;28;8979;-79
2021/07/29 13:01:25;;;;;;;;;1.80;1.80;;;;;;;;5047640;28;8765;-79
2021/07/29 13:03:52;;;;;;;;;2.20;1.80;;;;;;;;5038128;28;8911;-79
2021/07/29 13:06:22;;;;;;;;;2.00;2.00;;;;;;;;5058441;28;8871;-79
2021/07/29 13:08:49;;;;;;;;;2.80;1.20;;;;;;;;5059345;28;9673;-79
2021/07/29 13:11:17;;;;;;;;;1.40;0.80;;;;;;;;5055654;28;8878;-79
2021/07/29 13:13:45;;;;;;;;;2.80;1.80;;;;;;;;5052842;28;9074;-79
2021/07/29 13:16:12;;;;;;;;;0.80;0.80;;;;;;;;5064911;28;8864;-78
2021/07/29 13:18:40;;;;;;;;;1.80;1.80;;;;;;;;5066333;28;8862;-79
2021/07/29 13:21:08;;;;;;;;;1.60;1.60;;;;;;;;5057343;28;8888;-78
2021/07/29 13:23:37;;;;;;;;;2.40;2.40;;;;;;;;5048252;28;9616;-80
2021/07/29 13:26:04;;;;;;;;;1.80;1.80;;;;;;;;5046480;28;9021;-78
2021/07/29 13:28:31;;;;;;;;;1.00;1.00;;;;;;;;5042493;28;8882;-80
2021/07/29 13:31:01;;;;;;;;;1.80;1.80;;;;;;;;5045729;28;8819;-79
2021/07/29 13:33:29;;;;;;;;;2.80;1.00;;;;;;;;5046708;28;8870;-79
2021/07/29 13:35:56;;;;;;;;;2.40;2.00;;;;;;;;5045495;28;8859;-79
2021/07/29 13:38:23;;;;;;;;;2.80;1.60;;;;;;;;5046975;28;8851;-78
2021/07/29 13:40:52;;;;;;;;;2.00;2.00;;;;;;;;5047138;28;8871;-78
2021/07/29 13:43:20;;;;;;;;;1.60;1.60;;;;;;;;5044997;28;9689;-78
2021/07/29 13:45:48;;;;;;;;;0.80;0.80;;;;;;;;5047832;28;8856;-76
2021/07/29 13:48:15;;;;;;;;;1.80;1.80;;;;;;;;5043555;28;8878;-78
2021/07/29 13:50:43;;;;;;;;;3.60;3.60;;;;;;;;5045089;28;9045;-78
2021/07/29 13:53:10;;;;;;;;;0.80;0.80;;;;;;;;5046065;28;8838;-78
2021/07/29 13:55:38;;;;;;;;;1.40;1.40;;;;;;;;5047224;28;8864;-78
2021/07/29 13:58:07;;;;;;;;;2.60;2.60;;;;;;;;5046601;28;8866;-78
2021/07/29 14:00:35;;;;;;;;;1.80;1.80;;;;;;;;5045668;28;8817;-79
2021/07/29 14:03:03;;;;;;;;;1.60;1.60;;;;;;;;5045291;28;8877;-79
2021/07/29 14:05:31;;;;;;;;;2.60;2.60;;;;;;;;5047096;28;8871;-78
2021/07/29 14:07:58;;;;;;;;;2.00;2.00;;;;;;;;5034985;28;8902;-78
2021/07/29 14:10:26;;;;;;;;;2.00;2.00;;;;;;;;5065178;28;8917;-78
2021/07/29 14:12:53;;;;;;;;;1.80;1.80;;;;;;;;5059459;28;8846;-78
2021/07/29 14:15:22;;;;;;;;;1.60;1.60;;;;;;;;5044538;28;8981;-75
2021/07/29 14:17:57;;;;;;;;;1.60;1.60;;;;;;;;5044515;28;8869;-75
2021/07/29 14:20:29;;;;;;;;;1.80;1.80;;;;;;;;5045422;28;9739;-76
2021/07/29 14:25:39;;;;;;;;;0.00;0.00;;;;;;;;5046379;28;8858;-77
2021/07/29 14:28:08;;;;;;;;;1.80;1.80;;;;;;;;5045199;28;8861;-76
2021/07/29 14:30:40;;;;;;;;;1.20;1.20;;;;;;;;5042915;28;8813;-74
2021/07/29 14:33:08;;;;;;;;;1.80;1.80;;;;;;;;5048062;28;8866;-74
2021/07/29 14:35:36;;;;;;;;;1.20;1.20;;;;;;;;5047685;28;8863;-74
2021/07/29 14:38:05;;;;;;;;;1.80;1.80;;;;;;;;5036067;28;8888;-74
2021/07/29 14:40:33;;;;;;;;;2.00;0.40;;;;;;;;5048202;28;8902;-74
2021/07/29 14:43:00;;;;;;;;;1.80;1.80;;;;;;;;5062278;28;8913;-74
2021/07/29 14:45:56;;;;;;;;;0.80;0.80;;;;;;;;5064236;28;8957;-74
2021/07/29 14:48:55;;;;;;;;;1.80;1.80;;;;;;;;5047782;28;8887;-74
2021/07/29 14:51:23;;;;;;;;;1.40;1.40;;;;;;;;5029581;28;8878;-77
2021/07/29 14:53:50;;;;;;;;;1.00;1.00;;;;;;;;5057884;28;8894;-77
2021/07/29 14:56:30;;;;;;;;;1.80;1.20;;;;;;;;5063098;28;9661;-76
2021/07/29 16:07:58;;;;;;;;;2.40;2.40;;;;;;;;5029546;28;8955;-75
2021/07/29 16:10:26;;;;;;;;;0.80;0.80;;;;;;;;5049612;28;8992;-76
2021/07/29 16:12:55;;;;;;;;;1.60;1.60;;;;;;;;5049114;28;8942;-76
2021/07/29 16:15:23;;;;;;;;;1.60;1.60;;;;;;;;5048157;28;8944;-76
2021/07/29 16:17:50;;;;;;;;;2.00;2.00;;;;;;;;5049977;28;8848;-77
2021/07/29 16:20:17;;;;;;;;;2.00;2.00;;;;;;;;5049800;28;8870;-77
2021/07/29 16:22:45;;;;;;;;;1.80;1.80;;;;;;;;5049073;28;8874;-75
2021/07/29 16:25:12;;;;;;;;;5.00;2.00;;;;;;;;5067385;28;8860;-75